createdAt,value
2023-07-18T00:01:55.695Z,97872.65
2023-07-18T00:04:22.116Z,97870.20
2023-07-18T00:06:48.547Z,97869.11
2023-07-18T00:09:14.937Z,97872.79
2023-07-18T00:11:41.374Z,97875.75
2023-07-18T00:14:07.917Z,97883.04
2023-07-18T00:16:34.783Z,97889.84
2023-07-18T00:19:01.462Z,97886.98
2023-07-18T00:21:28.056Z,97886.88
2023-07-18T00:23:54.543Z,97882.25
2023-07-18T00:26:21.128Z,97881.39
2023-07-18T00:28:47.668Z,97880.13
2023-07-18T00:31:15.490Z,97880.52
2023-07-18T00:33:42.030Z,97880.10
2023-07-18T00:36:08.451Z,97876.42
2023-07-18T00:38:34.843Z,97865.96
2023-07-18T00:41:02.094Z,97854.48
2023-07-18T00:43:31.626Z,97848.27
2023-07-18T00:45:58.142Z,97846.20
2023-07-18T00:48:27.554Z,97850.70
2023-07-18T00:50:54.110Z,97854.06
2023-07-18T00:53:22.857Z,97856.26
2023-07-18T00:55:50.094Z,97864.27
2023-07-18T00:58:17.987Z,97864.54
2023-07-18T01:00:44.497Z,97855.70
2023-07-18T01:03:11.194Z,97847.97
2023-07-18T01:05:37.788Z,97854.02
2023-07-18T01:08:04.246Z,97857.14
2023-07-18T01:10:31.997Z,97853.04
2023-07-18T01:13:00.149Z,97850.03
2023-07-18T01:15:30.540Z,97856.52
2023-07-18T01:17:57.074Z,97858.72
2023-07-18T01:20:24.569Z,97859.48
2023-07-18T01:22:52.867Z,97865.25
2023-07-18T01:25:19.417Z,97859.98
2023-07-18T01:27:50.131Z,97884.41
2023-07-18T01:30:17.746Z,97891.29
2023-07-18T01:32:44.180Z,97884.27
2023-07-18T01:35:10.662Z,97872.16
2023-07-18T01:37:38.159Z,97866.34
2023-07-18T01:40:06.644Z,97863.25
2023-07-18T01:42:33.082Z,97866.60
2023-07-18T01:44:59.798Z,97874.48
2023-07-18T01:47:26.465Z,97870.48
2023-07-18T01:49:52.873Z,97871.05
2023-07-18T01:52:19.310Z,97874.09
2023-07-18T01:54:45.830Z,97880.38
2023-07-18T01:57:12.368Z,97882.70
2023-07-18T01:59:39.006Z,97889.58
2023-07-18T02:02:05.469Z,97890.61
2023-07-18T02:04:32.077Z,97903.39
2023-07-18T02:06:58.519Z,97916.70
2023-07-18T02:09:24.976Z,97921.52
2023-07-18T02:11:51.536Z,97934.09
2023-07-18T02:14:17.944Z,97940.33
2023-07-18T02:16:44.435Z,97944.17
2023-07-18T02:19:10.902Z,97959.91
2023-07-18T02:21:37.409Z,97965.42
2023-07-18T02:24:03.963Z,97966.25
2023-07-18T02:26:30.482Z,97976.94
2023-07-18T02:28:56.879Z,97983.48
2023-07-18T02:31:24.988Z,97991.81
2023-07-18T02:33:51.618Z,97998.64
2023-07-18T02:36:18.140Z,98008.30
2023-07-18T02:38:44.577Z,98008.33
2023-07-18T02:41:11.005Z,98015.96
2023-07-18T02:43:37.466Z,98020.67
2023-07-18T02:46:04.005Z,98022.00
2023-07-18T02:48:30.433Z,98026.44
2023-07-18T02:50:56.852Z,98030.37
2023-07-18T02:53:23.230Z,98031.73
2023-07-18T02:55:49.618Z,98033.98
2023-07-18T02:58:16.101Z,98041.38
2023-07-18T03:00:42.675Z,98045.11
2023-07-18T03:03:09.308Z,98044.29
2023-07-18T03:05:35.854Z,98039.77
2023-07-18T03:08:02.521Z,98041.39
2023-07-18T03:10:28.957Z,98044.35
2023-07-18T03:12:55.465Z,98047.07
2023-07-18T03:15:21.898Z,98053.20
2023-07-18T03:17:48.425Z,98055.20
2023-07-18T03:20:14.979Z,98054.80
2023-07-18T03:22:41.458Z,98058.94
2023-07-18T03:25:08.262Z,98059.58
2023-07-18T03:27:34.736Z,98059.52
2023-07-18T03:30:01.241Z,98058.89
2023-07-18T03:32:29.672Z,98063.55
2023-07-18T03:34:56.300Z,98067.90
2023-07-18T03:37:25.782Z,98066.23
2023-07-18T03:39:52.236Z,98070.27
2023-07-18T03:42:18.714Z,98070.83
2023-07-18T03:44:45.135Z,98071.71
2023-07-18T03:47:20.776Z,98075.20
2023-07-18T03:49:47.792Z,98082.34
2023-07-18T03:52:14.267Z,98077.60
2023-07-18T03:54:40.679Z,98084.27
2023-07-18T03:57:07.177Z,98084.98
2023-07-18T03:59:33.729Z,98085.75
2023-07-18T04:02:00.167Z,98086.99
2023-07-18T04:04:26.722Z,98090.84
2023-07-18T04:06:53.513Z,98094.06
2023-07-18T04:09:19.915Z,98092.59
2023-07-18T04:11:46.441Z,98095.74
2023-07-18T04:14:13.246Z,98098.06
2023-07-18T04:16:39.790Z,98101.35
2023-07-18T04:19:06.406Z,98110.91
2023-07-18T04:21:33.597Z,98117.17
2023-07-18T04:24:00.266Z,98116.41
2023-07-18T04:26:26.811Z,98120.90
2023-07-18T04:28:53.276Z,98124.94
2023-07-18T04:31:19.918Z,98129.27
2023-07-18T04:33:46.810Z,98130.05
2023-07-18T04:36:13.226Z,98132.99
2023-07-18T04:38:39.915Z,98136.72
2023-07-18T04:41:06.419Z,98134.46
2023-07-18T04:43:33.032Z,98142.06
2023-07-18T04:45:59.458Z,98145.48
2023-07-18T04:48:26.387Z,98145.70
2023-07-18T04:50:59.974Z,98152.73
2023-07-18T04:53:27.099Z,98156.83
2023-07-18T04:55:53.891Z,98156.84
2023-07-18T04:58:20.478Z,98161.45
2023-07-18T05:00:47.160Z,98162.14
2023-07-18T05:03:13.936Z,98168.29
2023-07-18T05:05:40.491Z,98165.19
2023-07-18T05:08:07.054Z,98172.80
2023-07-18T05:10:33.476Z,98176.46
2023-07-18T05:13:00.220Z,98183.33
2023-07-18T05:15:26.755Z,98187.49
2023-07-18T05:17:53.158Z,98190.92
2023-07-18T05:20:19.674Z,98197.09
2023-07-18T05:22:46.525Z,98201.71
2023-07-18T05:25:14.214Z,98209.13
2023-07-18T05:27:41.490Z,98214.38
2023-07-18T05:30:15.204Z,98215.27
2023-07-18T05:32:42.411Z,98225.42
2023-07-18T05:35:09.044Z,98227.48
2023-07-18T05:37:35.706Z,98229.65
2023-07-18T05:40:02.384Z,98226.83
2023-07-18T05:42:28.861Z,98223.88
2023-07-18T05:44:55.309Z,98222.05
2023-07-18T05:47:21.885Z,98224.39
2023-07-18T05:49:48.319Z,98222.00
2023-07-18T05:52:15.010Z,98227.80
2023-07-18T05:54:41.597Z,98221.17
2023-07-18T05:57:09.128Z,98221.05
2023-07-18T05:59:35.637Z,98222.27
2023-07-18T06:02:02.281Z,98230.62
2023-07-18T06:04:28.784Z,98231.17
2023-07-18T06:06:55.261Z,98232.75
2023-07-18T06:09:21.810Z,98236.55
2023-07-18T06:11:48.384Z,98241.16
2023-07-18T06:14:15.037Z,98243.80
2023-07-18T06:16:42.698Z,98253.27
2023-07-18T06:19:09.344Z,98254.48
2023-07-18T06:21:35.823Z,98253.63
2023-07-18T06:24:16.784Z,98256.79
2023-07-18T06:26:45.628Z,98259.50
2023-07-18T06:29:13.220Z,98260.59
2023-07-18T06:31:39.622Z,98260.04
2023-07-18T06:34:06.071Z,98267.27
2023-07-18T06:36:32.687Z,98270.01
2023-07-18T06:38:59.278Z,98268.98
2023-07-18T06:41:25.769Z,98270.91
2023-07-18T06:43:52.258Z,98272.67
2023-07-18T06:46:18.764Z,98270.52
2023-07-18T06:48:45.239Z,98275.18
2023-07-18T06:51:11.728Z,98276.87
2023-07-18T06:53:47.121Z,98276.44
2023-07-18T06:56:13.607Z,98281.51
2023-07-18T06:58:40.152Z,98281.06
2023-07-18T07:01:06.641Z,98282.83
2023-07-18T07:03:33.279Z,98283.43
2023-07-18T07:05:59.815Z,98287.23
2023-07-18T07:08:26.301Z,98287.27
2023-07-18T07:11:03.351Z,98287.67
2023-07-18T07:13:29.924Z,98288.27
2023-07-18T07:15:56.516Z,98284.12
2023-07-18T07:18:23.552Z,98284.52
2023-07-18T07:20:51.290Z,98283.55
2023-07-18T07:23:17.887Z,98286.67
2023-07-18T07:25:44.513Z,98284.77
2023-07-18T07:28:11.094Z,98286.40
2023-07-18T07:30:37.577Z,98285.55
2023-07-18T07:33:04.646Z,98289.14
2023-07-18T07:35:31.089Z,98287.39
2023-07-18T07:37:57.595Z,98291.27
2023-07-18T07:40:24.262Z,98285.66
2023-07-18T07:42:50.936Z,98279.84
2023-07-18T07:45:17.580Z,98285.02
2023-07-18T07:47:44.185Z,98284.63
2023-07-18T07:50:10.732Z,98283.38
2023-07-18T07:52:37.184Z,98287.44
2023-07-18T07:55:03.854Z,98286.42
2023-07-18T07:57:30.523Z,98286.35
2023-07-18T07:59:56.976Z,98288.74
2023-07-18T08:02:23.734Z,98283.41
2023-07-18T08:04:50.308Z,98283.45
2023-07-18T08:07:16.881Z,98284.27
2023-07-18T08:09:43.562Z,98280.71
2023-07-18T08:12:10.936Z,98283.73
2023-07-18T08:14:37.385Z,98282.86
2023-07-18T08:17:04.297Z,98281.20
2023-07-18T08:19:30.754Z,98278.39
2023-07-18T08:21:57.215Z,98280.77
2023-07-18T08:24:23.619Z,98278.09
2023-07-18T08:26:50.080Z,98277.98
2023-07-18T08:29:16.942Z,98274.67
2023-07-18T08:31:43.787Z,98269.60
2023-07-18T08:34:10.369Z,98272.46
2023-07-18T08:36:36.783Z,98273.05
2023-07-18T08:39:06.847Z,98274.96
2023-07-18T08:41:38.029Z,98274.41
2023-07-18T08:44:04.683Z,98276.38
2023-07-18T08:46:31.269Z,98276.55
2023-07-18T08:48:58.301Z,98279.32
2023-07-18T08:51:24.910Z,98277.86
2023-07-18T08:53:51.344Z,98277.94
2023-07-18T08:56:17.855Z,98278.73
2023-07-18T08:58:44.330Z,98273.70
2023-07-18T09:01:10.760Z,98273.80
2023-07-18T09:03:37.193Z,98270.69
2023-07-18T09:06:03.927Z,98272.28
2023-07-18T09:08:42.803Z,98277.26
2023-07-18T09:11:09.265Z,98276.27
2023-07-18T09:13:42.186Z,98272.83
2023-07-18T09:16:18.736Z,98269.37
2023-07-18T09:18:50.252Z,98271.30
2023-07-18T09:21:17.692Z,98272.90
2023-07-18T09:23:45.311Z,98266.85
2023-07-18T09:26:13.452Z,98268.99
2023-07-18T09:28:39.967Z,98269.20
2023-07-18T09:31:19.548Z,98266.29
2023-07-18T09:33:47.198Z,98262.23
2023-07-18T09:36:20.726Z,98258.71
2023-07-18T09:38:47.556Z,98253.13
2023-07-18T09:41:15.992Z,98252.37
2023-07-18T09:43:42.783Z,98252.85
2023-07-18T09:46:13.259Z,98256.26
2023-07-18T09:51:11.272Z,98249.77
2023-07-18T09:53:39.473Z,98249.80
2023-07-18T09:56:07.845Z,98249.69
2023-07-18T09:58:37.371Z,98246.14
2023-07-18T10:01:05.178Z,98237.90
2023-07-18T10:03:32.010Z,98234.84
2023-07-18T10:05:58.620Z,98230.45
2023-07-18T10:11:27.153Z,98230.39
2023-07-18T10:14:23.232Z,98230.22
2023-07-18T10:16:55.905Z,98227.38
2023-07-18T10:19:23.154Z,98227.05
2023-07-18T10:21:51.745Z,98226.85
2023-07-18T10:24:21.382Z,98223.17
2023-07-18T10:27:20.220Z,98215.04
2023-07-18T10:30:03.261Z,98207.17
2023-07-18T10:32:33.690Z,98208.44
2023-07-18T10:35:00.841Z,98210.67
2023-07-18T10:37:29.907Z,98209.27
2023-07-18T10:39:57.196Z,98201.73
2023-07-18T10:42:25.469Z,98197.31
2023-07-18T10:44:55.040Z,98200.29
2023-07-18T10:47:21.986Z,98196.02
2023-07-18T10:49:48.589Z,98199.41
2023-07-18T10:52:15.729Z,98193.68
2023-07-18T10:54:52.328Z,98185.80
2023-07-18T10:57:25.326Z,98182.61
2023-07-18T10:59:52.524Z,98176.70
2023-07-18T11:02:19.528Z,98174.39
2023-07-18T11:04:46.765Z,98178.77
2023-07-18T11:07:13.283Z,98177.11
2023-07-18T11:09:40.508Z,98172.75
2023-07-18T11:12:07.858Z,98172.24
2023-07-18T11:14:40.661Z,98165.83
2023-07-18T11:17:11.437Z,98164.96
2023-07-18T11:19:38.127Z,98158.02
2023-07-18T11:22:06.143Z,98161.11
2023-07-18T11:24:33.591Z,98157.86
2023-07-18T11:27:15.412Z,98164.36
2023-07-18T11:30:02.025Z,98154.17
2023-07-18T11:32:42.045Z,98144.55
2023-07-18T11:35:12.691Z,98138.73
2023-07-18T11:37:42.560Z,98146.66
2023-07-18T11:40:10.366Z,98141.16
2023-07-18T11:42:47.145Z,98140.14
2023-07-18T11:45:15.561Z,98140.60
2023-07-18T11:47:42.758Z,98147.73
2023-07-18T11:50:09.983Z,98141.29
2023-07-18T11:52:36.424Z,98142.14
2023-07-18T11:55:02.957Z,98144.32
2023-07-18T11:57:29.467Z,98136.13
2023-07-18T11:59:55.972Z,98131.96
2023-07-18T12:02:24.069Z,98129.36
2023-07-18T12:04:52.531Z,98132.98
2023-07-18T12:07:18.985Z,98130.67
2023-07-18T12:09:45.506Z,98127.07
2023-07-18T12:12:12.049Z,98121.16
2023-07-18T12:14:38.739Z,98119.02
2023-07-18T12:17:05.566Z,98122.02
2023-07-18T12:19:32.309Z,98117.65
2023-07-18T12:21:58.864Z,98121.12
2023-07-18T12:24:25.321Z,98118.48
2023-07-18T12:26:51.853Z,98117.70
2023-07-18T12:29:18.356Z,98118.48
2023-07-18T12:31:45.611Z,98111.60
2023-07-18T12:34:12.390Z,98109.17
2023-07-18T12:36:38.836Z,98104.66
2023-07-18T12:39:05.421Z,98103.62
2023-07-18T12:41:32.143Z,98104.56
2023-07-18T12:43:58.654Z,98105.45
2023-07-18T12:46:25.125Z,98106.36
2023-07-18T12:51:29.646Z,98101.79
2023-07-18T12:53:56.108Z,98095.70
2023-07-18T12:56:22.700Z,98094.06
2023-07-18T12:58:49.204Z,98093.48
2023-07-18T13:01:15.739Z,98090.06
2023-07-18T13:03:42.288Z,98088.83
2023-07-18T13:06:09.088Z,98089.58
2023-07-18T13:08:35.611Z,98084.00
2023-07-18T13:11:02.231Z,98082.84
2023-07-18T13:13:28.699Z,98078.08
2023-07-18T13:15:55.267Z,98076.18
2023-07-18T13:18:21.719Z,98073.45
2023-07-18T13:20:48.633Z,98072.21
2023-07-18T13:23:15.218Z,98071.04
2023-07-18T13:25:41.693Z,98069.09
2023-07-18T13:28:08.584Z,98063.68
2023-07-18T13:30:36.556Z,98063.36
2023-07-18T13:33:03.068Z,98057.08
2023-07-18T13:35:29.641Z,98054.89
2023-07-18T13:37:56.183Z,98045.58
2023-07-18T13:40:23.331Z,98046.20
2023-07-18T13:42:49.860Z,98044.47
2023-07-18T13:45:16.365Z,98036.91
2023-07-18T13:47:44.660Z,98030.70
2023-07-18T13:52:40.695Z,98024.96
2023-07-18T13:55:07.457Z,98020.11
2023-07-18T13:57:33.976Z,98019.05
2023-07-18T14:00:00.409Z,98016.19
2023-07-18T14:02:26.990Z,98011.61
2023-07-18T14:04:53.598Z,98012.07
2023-07-18T14:07:20.046Z,98014.73
2023-07-18T14:09:46.512Z,98020.04
2023-07-18T14:12:14.108Z,98017.09
2023-07-18T14:14:40.712Z,98015.15
2023-07-18T14:17:07.253Z,98010.16
2023-07-18T14:19:33.662Z,98010.06
2023-07-18T14:22:00.301Z,98008.96
2023-07-18T14:24:26.826Z,98009.76
2023-07-18T14:26:53.548Z,98014.84
2023-07-18T14:29:20.033Z,98019.96
2023-07-18T14:31:46.545Z,98028.19
2023-07-18T14:34:13.150Z,98037.94
2023-07-18T14:36:39.648Z,98046.72
2023-07-18T14:39:06.195Z,98030.69
2023-07-18T14:41:32.637Z,98027.81
2023-07-18T14:43:59.155Z,98020.27
2023-07-18T14:46:25.830Z,98013.34
2023-07-18T14:48:52.511Z,98008.09
2023-07-18T14:51:19.119Z,98001.97
2023-07-18T14:53:45.743Z,98002.63
2023-07-18T14:56:12.300Z,97995.80
2023-07-18T14:58:38.882Z,97989.73
2023-07-18T15:01:05.525Z,97987.12
2023-07-18T15:03:32.193Z,97985.16
2023-07-18T15:05:58.633Z,97982.55
2023-07-18T15:08:25.106Z,97981.30
2023-07-18T15:10:51.628Z,97981.98
2023-07-18T15:13:18.070Z,97979.95
2023-07-18T15:15:46.047Z,97978.84
2023-07-18T15:18:13.077Z,97978.43
2023-07-18T15:20:39.596Z,97982.41
2023-07-18T15:23:06.241Z,97979.13
2023-07-18T15:25:32.965Z,97973.05
2023-07-18T15:27:59.498Z,97974.09
2023-07-18T15:30:26.298Z,97972.73
2023-07-18T15:32:54.424Z,97962.91
2023-07-18T15:35:21.029Z,97964.42
2023-07-18T15:37:47.479Z,97961.91
2023-07-18T15:40:13.973Z,97962.80
2023-07-18T15:42:40.653Z,97962.89
2023-07-18T15:45:07.491Z,97961.41
2023-07-18T15:47:34.362Z,97959.79
2023-07-18T15:50:00.854Z,97954.42
2023-07-18T15:52:27.478Z,97943.42
2023-07-18T15:54:54.110Z,97942.77
2023-07-18T15:57:20.620Z,97931.27
2023-07-18T15:59:47.232Z,97926.55
2023-07-18T16:02:13.920Z,97914.91
2023-07-18T16:04:40.568Z,97905.96
2023-07-18T16:07:07.020Z,97903.35
2023-07-18T16:09:46.714Z,97896.27
2023-07-18T16:12:13.171Z,97899.16
2023-07-18T16:14:39.654Z,97900.45
2023-07-18T16:17:06.246Z,97898.16
2023-07-18T16:19:32.663Z,97898.83
2023-07-18T16:21:59.160Z,97896.44
2023-07-18T16:24:25.668Z,97889.89
2023-07-18T16:29:30.618Z,97887.57
2023-07-18T16:31:56.954Z,97890.86
2023-07-18T16:34:24.693Z,97889.41
2023-07-18T16:36:56.578Z,97892.61
2023-07-18T16:39:22.998Z,97895.38
2023-07-18T16:41:49.512Z,97893.59
2023-07-18T16:44:17.551Z,97897.19
2023-07-18T16:46:45.796Z,97900.45
2023-07-18T16:49:12.234Z,97888.83
2023-07-18T16:51:38.936Z,97888.66
2023-07-18T16:54:05.444Z,97890.94
2023-07-18T16:56:33.187Z,97889.79
2023-07-18T16:59:00.773Z,97890.71
2023-07-18T17:01:27.491Z,97893.43
2023-07-18T17:03:54.059Z,97895.30
2023-07-18T17:06:21.053Z,97892.38
2023-07-18T17:08:48.129Z,97897.02
2023-07-18T17:11:32.853Z,97893.14
2023-07-18T17:13:59.500Z,97881.00
2023-07-18T17:16:25.959Z,97870.87
2023-07-18T17:18:52.457Z,97875.02
2023-07-18T17:21:18.991Z,97876.05
2023-07-18T17:23:47.932Z,97874.27
2023-07-18T17:26:16.813Z,97870.09
2023-07-18T17:28:43.451Z,97867.73
2023-07-18T17:31:10.196Z,97875.40
2023-07-18T17:33:39.085Z,97871.13
2023-07-18T17:36:06.532Z,97870.58
2023-07-18T17:38:33.107Z,97875.81
2023-07-18T17:40:59.752Z,97874.44
2023-07-18T17:43:26.391Z,97868.85
2023-07-18T17:45:52.861Z,97867.64
2023-07-18T17:48:19.303Z,97860.45
2023-07-18T17:50:46.130Z,97854.14
2023-07-18T17:53:13.018Z,97845.64
2023-07-18T17:55:39.651Z,97849.88
2023-07-18T17:58:06.017Z,97846.65
2023-07-18T18:00:32.489Z,97846.15
2023-07-18T18:02:59.209Z,97837.31
2023-07-18T18:05:39.004Z,97833.77
2023-07-18T18:11:07.683Z,97825.81
2023-07-18T18:13:34.691Z,97824.23
2023-07-18T18:16:08.307Z,97821.89
2023-07-18T18:18:36.026Z,97825.23
2023-07-18T18:21:03.099Z,97821.23
2023-07-18T18:23:38.700Z,97819.42
2023-07-18T18:29:01.800Z,97823.75
2023-07-18T18:31:28.196Z,97827.48
2023-07-18T18:33:54.684Z,97831.91
2023-07-18T18:36:28.072Z,97832.27
2023-07-18T18:38:54.556Z,97834.96
2023-07-18T18:41:21.239Z,97838.19
2023-07-18T18:43:49.258Z,97838.12
2023-07-18T18:46:16.122Z,97832.23
2023-07-18T18:48:42.604Z,97828.65
2023-07-18T18:51:11.864Z,97819.89
2023-07-18T18:53:40.526Z,97823.28
2023-07-18T18:56:07.242Z,97822.23
2023-07-18T18:58:36.775Z,97823.45
2023-07-18T19:01:03.255Z,97826.60
2023-07-18T19:03:30.161Z,97825.80
2023-07-18T19:09:05.781Z,97835.98
2023-07-18T19:11:32.415Z,97836.38
2023-07-18T19:14:01.125Z,97844.66
2023-07-18T19:16:38.853Z,97843.00
2023-07-18T19:19:06.427Z,97835.44
2023-07-18T19:24:13.585Z,97830.59
2023-07-18T19:26:40.534Z,97826.94
2023-07-18T19:29:08.047Z,97827.91
2023-07-18T19:31:34.626Z,97827.67
2023-07-18T19:34:01.149Z,97834.61
2023-07-18T19:36:27.690Z,97835.33
2023-07-18T19:38:54.329Z,97841.30
2023-07-18T19:41:20.879Z,97839.75
2023-07-18T19:43:47.457Z,97831.06
2023-07-18T19:46:14.137Z,97830.05
2023-07-18T19:48:40.658Z,97827.08
2023-07-18T19:51:07.090Z,97821.91
2023-07-18T19:53:33.640Z,97821.75
2023-07-18T19:56:01.570Z,97819.39
2023-07-18T19:58:28.002Z,97822.16
2023-07-18T20:00:54.994Z,97819.44
2023-07-18T20:03:21.699Z,97819.53
2023-07-18T20:05:49.338Z,97819.66
2023-07-18T20:08:19.881Z,97816.60
2023-07-18T20:10:46.335Z,97815.58
2023-07-18T20:13:12.718Z,97808.21
2023-07-18T20:15:39.174Z,97802.67
2023-07-18T20:18:05.720Z,97807.14
2023-07-18T20:20:32.201Z,97808.48
2023-07-18T20:22:58.633Z,97811.31
2023-07-18T20:25:25.182Z,97810.70
2023-07-18T20:27:51.531Z,97810.17
2023-07-18T20:30:17.907Z,97803.07
2023-07-18T20:32:44.342Z,97799.90
2023-07-18T20:35:10.734Z,97797.77
2023-07-18T20:37:37.168Z,97794.65
2023-07-18T20:40:03.736Z,97793.86
2023-07-18T20:42:30.545Z,97786.14
2023-07-18T20:44:56.915Z,97782.01
2023-07-18T20:47:23.442Z,97775.45
2023-07-18T20:49:49.939Z,97771.40
2023-07-18T20:52:16.404Z,97771.64
2023-07-18T20:54:42.798Z,97772.26
2023-07-18T20:57:09.218Z,97766.67
2023-07-18T20:59:35.645Z,97769.55
2023-07-18T21:02:02.124Z,97769.87
2023-07-18T21:04:28.466Z,97773.70
2023-07-18T21:06:57.662Z,97778.08
2023-07-18T21:09:24.272Z,97778.73
2023-07-18T21:11:50.719Z,97770.36
2023-07-18T21:14:18.581Z,97768.73
2023-07-18T21:16:45.623Z,97765.06
2023-07-18T21:19:12.209Z,97768.18
2023-07-18T21:21:38.623Z,97770.88
2023-07-18T21:24:05.261Z,97771.52
2023-07-18T21:26:31.686Z,97776.74
2023-07-18T21:29:04.865Z,97773.34
2023-07-18T21:31:32.695Z,97768.94
2023-07-18T21:33:59.180Z,97769.04
2023-07-18T21:36:25.570Z,97764.35
2023-07-18T21:38:52.071Z,97759.52
2023-07-18T21:41:18.787Z,97754.77
2023-07-18T21:43:45.371Z,97758.80
2023-07-18T21:46:11.865Z,97758.89
2023-07-18T21:48:38.443Z,97756.00
2023-07-18T21:51:04.898Z,97760.64
2023-07-18T21:53:31.267Z,97758.84
2023-07-18T21:55:58.072Z,97755.75
2023-07-18T21:58:24.511Z,97750.12
2023-07-18T22:00:51.040Z,97749.10
2023-07-18T22:03:17.552Z,97745.17
2023-07-18T22:05:44.273Z,97745.59
2023-07-18T22:08:10.685Z,97740.70
2023-07-18T22:10:37.048Z,97738.19
2023-07-18T22:13:03.411Z,97735.14
2023-07-18T22:15:30.329Z,97723.83
2023-07-18T22:17:56.780Z,97724.14
2023-07-18T22:20:23.192Z,97728.00
2023-07-18T22:22:49.760Z,97727.44
2023-07-18T22:25:16.248Z,97720.04
2023-07-18T22:27:42.593Z,97719.45
2023-07-18T22:30:09.098Z,97717.80
2023-07-18T22:32:35.671Z,97714.02
2023-07-18T22:35:02.083Z,97707.79
2023-07-18T22:37:28.637Z,97702.44
2023-07-18T22:39:55.004Z,97696.27
2023-07-18T22:42:22.474Z,97691.39
2023-07-18T22:44:49.130Z,97690.84
2023-07-18T22:47:15.711Z,97690.27
2023-07-18T22:49:42.254Z,97683.22
2023-07-18T22:52:09.494Z,97681.42
2023-07-18T22:54:36.283Z,97681.92
2023-07-18T22:57:02.671Z,97679.77
2023-07-18T22:59:29.425Z,97678.59
2023-07-18T23:01:55.774Z,97681.40
2023-07-18T23:04:22.276Z,97682.31
2023-07-18T23:06:48.901Z,97679.77
2023-07-18T23:09:15.547Z,97676.61
2023-07-18T23:11:42.563Z,97675.35
2023-07-18T23:14:09.078Z,97668.09
2023-07-18T23:16:35.489Z,97657.85
2023-07-18T23:19:01.921Z,97659.30
2023-07-18T23:21:28.430Z,97658.33
2023-07-18T23:23:54.821Z,97654.38
2023-07-18T23:26:21.322Z,97647.81
2023-07-18T23:28:47.682Z,97644.08
2023-07-18T23:31:14.161Z,97637.48
2023-07-18T23:33:40.714Z,97636.56
2023-07-18T23:36:07.494Z,97632.33
2023-07-18T23:38:33.804Z,97627.08
2023-07-18T23:41:00.251Z,97623.56
2023-07-18T23:43:26.650Z,97621.05
2023-07-18T23:45:53.106Z,97617.29
2023-07-18T23:48:19.492Z,97608.04
2023-07-18T23:50:46.030Z,97609.12
2023-07-18T23:53:12.545Z,97608.45
2023-07-18T23:55:41.897Z,97605.61
2023-07-18T23:58:08.379Z,97601.60
